createdAt,value
2018-12-16T00:02:13.619Z,87.14
2018-12-16T00:04:49.842Z,86.79
2018-12-16T00:07:16.411Z,86.76
2018-12-16T00:09:48.523Z,87.34
2018-12-16T00:12:27.162Z,87.19
2018-12-16T00:14:58.459Z,86.94
2018-12-16T00:17:32.351Z,87.82
2018-12-16T00:20:04.134Z,88.11
2018-12-16T00:22:35.788Z,87.85
2018-12-16T00:25:08.551Z,87.46
2018-12-16T00:27:45.550Z,86.99
2018-12-16T00:30:15.791Z,87.61
2018-12-16T00:32:50.993Z,86.99
2018-12-16T00:35:19.904Z,87.61
2018-12-16T00:37:48.391Z,87.21
2018-12-16T00:40:19.706Z,87.48
2018-12-16T00:45:32.593Z,87.15
2018-12-16T00:48:06.159Z,86.27
2018-12-16T00:50:39.689Z,85.85
2018-12-16T00:53:14.476Z,86.40
2018-12-16T00:55:45.555Z,85.80
2018-12-16T00:58:14.093Z,86.38
2018-12-16T01:00:46.894Z,86.15
2018-12-16T01:03:20.638Z,86.32
2018-12-16T01:05:54.754Z,86.25
2018-12-16T01:08:26.635Z,86.10
2018-12-16T01:10:58.231Z,85.04
2018-12-16T01:13:33.079Z,86.26
2018-12-16T01:16:01.813Z,86.02
2018-12-16T01:18:36.611Z,85.18
2018-12-16T01:21:05.337Z,85.68
2018-12-16T01:23:35.796Z,85.18
2018-12-16T01:26:10.310Z,84.95
2018-12-16T01:28:38.736Z,85.18
2018-12-16T01:31:14.177Z,85.36
2018-12-16T01:33:47.419Z,84.67
2018-12-16T01:36:19.394Z,84.23
2018-12-16T01:38:48.289Z,85.21
2018-12-16T01:41:24.144Z,83.99
2018-12-16T01:43:53.768Z,85.19
2018-12-16T01:46:22.328Z,83.40
2018-12-16T01:48:51.357Z,83.71
2018-12-16T01:51:23.182Z,83.39
2018-12-16T01:53:51.908Z,83.86
2018-12-16T01:56:22.359Z,83.56
2018-12-16T01:58:51.000Z,83.24
2018-12-16T02:01:23.168Z,82.89
2018-12-16T02:03:53.824Z,81.68
2018-12-16T02:06:22.301Z,81.98
2018-12-16T02:08:51.138Z,81.55
2018-12-16T02:11:19.674Z,81.65
2018-12-16T02:13:52.821Z,81.75
2018-12-16T02:16:21.392Z,82.06
2018-12-16T02:18:49.797Z,82.23
2018-12-16T02:21:18.290Z,82.08
2018-12-16T02:23:50.094Z,82.54
2018-12-16T02:26:18.549Z,82.63
2018-12-16T02:28:50.054Z,82.29
2018-12-16T02:31:18.937Z,82.49
2018-12-16T02:33:50.785Z,82.37
2018-12-16T02:36:19.351Z,81.54
2018-12-16T02:38:52.943Z,82.67
2018-12-16T02:41:21.553Z,82.93
2018-12-16T02:43:50.441Z,82.74
2018-12-16T02:46:20.781Z,82.50
2018-12-16T02:48:49.345Z,82.52
2018-12-16T02:51:18.033Z,82.37
2018-12-16T02:53:46.670Z,82.44
2018-12-16T02:56:16.761Z,82.55
2018-12-16T02:58:45.715Z,82.60
2018-12-16T03:01:14.254Z,83.13
2018-12-16T03:03:49.261Z,82.80
2018-12-16T03:06:17.976Z,82.98
2018-12-16T03:08:49.685Z,82.41
2018-12-16T03:11:22.175Z,83.08
2018-12-16T03:13:55.187Z,83.52
2018-12-16T03:16:24.063Z,83.35
2018-12-16T03:18:55.858Z,83.77
2018-12-16T03:21:24.481Z,83.06
2018-12-16T03:23:54.176Z,83.44
2018-12-16T03:26:26.449Z,84.05
2018-12-16T03:28:54.876Z,84.60
2018-12-16T03:31:23.438Z,84.03
2018-12-16T03:33:51.937Z,83.74
2018-12-16T03:36:20.364Z,83.89
2018-12-16T03:38:50.806Z,83.94
2018-12-16T03:41:23.258Z,84.38
2018-12-16T03:43:55.141Z,84.39
2018-12-16T03:46:25.835Z,84.56
2018-12-16T03:48:54.365Z,84.51
2018-12-16T03:51:26.991Z,83.82
2018-12-16T03:53:56.698Z,84.22
2018-12-16T03:56:28.333Z,84.18
2018-12-16T03:59:08.133Z,84.03
2018-12-16T04:01:41.293Z,84.81
2018-12-16T04:04:09.895Z,84.93
2018-12-16T04:06:39.895Z,83.94
2018-12-16T04:09:08.768Z,84.43
2018-12-16T04:11:40.906Z,84.06
2018-12-16T04:14:09.296Z,84.66
2018-12-16T04:16:39.504Z,84.72
2018-12-16T04:19:07.976Z,84.49
2018-12-16T04:21:41.934Z,84.54
2018-12-16T04:24:18.553Z,84.85
2018-12-16T04:26:55.382Z,84.80
2018-12-16T04:29:34.056Z,84.20
2018-12-16T04:32:02.729Z,84.02
2018-12-16T04:34:35.578Z,84.89
2018-12-16T04:37:10.439Z,84.67
2018-12-16T04:39:43.096Z,84.73
2018-12-16T04:42:22.447Z,84.39
2018-12-16T04:44:51.598Z,84.07
2018-12-16T04:47:20.170Z,83.83
2018-12-16T04:49:53.643Z,83.88
2018-12-16T04:52:27.134Z,83.67
2018-12-16T04:55:01.755Z,83.30
2018-12-16T04:57:32.162Z,83.46
2018-12-16T05:00:02.617Z,83.94
2018-12-16T05:02:36.813Z,83.75
2018-12-16T05:05:05.625Z,83.28
2018-12-16T05:07:39.844Z,83.15
2018-12-16T05:13:06.545Z,83.08
2018-12-16T05:15:35.150Z,83.40
2018-12-16T05:18:06.099Z,83.91
2018-12-16T05:20:37.142Z,83.05
2018-12-16T05:23:14.798Z,83.34
2018-12-16T05:25:47.888Z,83.29
2018-12-16T05:28:22.849Z,82.92
2018-12-16T05:30:57.113Z,83.43
2018-12-16T05:33:31.850Z,83.22
2018-12-16T05:36:07.930Z,83.06
2018-12-16T05:38:41.286Z,83.26
2018-12-16T05:41:14.895Z,83.23
2018-12-16T05:43:43.349Z,82.88
2018-12-16T05:46:17.681Z,83.41
2018-12-16T05:48:47.471Z,83.46
2018-12-16T05:51:19.426Z,83.17
2018-12-16T05:53:54.250Z,83.84
2018-12-16T05:56:23.322Z,83.07
2018-12-16T05:58:53.496Z,83.93
2018-12-16T06:01:28.689Z,83.45
2018-12-16T06:04:05.273Z,84.16
2018-12-16T06:06:40.615Z,84.53
2018-12-16T06:11:57.621Z,82.89
2018-12-16T06:14:26.248Z,83.44
2018-12-16T06:16:54.958Z,82.33
2018-12-16T06:19:23.767Z,83.36
2018-12-16T06:21:52.372Z,82.84
2018-12-16T06:24:20.865Z,84.05
2018-12-16T06:26:49.446Z,84.14
2018-12-16T06:29:17.915Z,85.20
2018-12-16T06:31:46.439Z,84.80
2018-12-16T06:34:14.963Z,84.53
2018-12-16T06:36:43.431Z,83.97
2018-12-16T06:39:11.970Z,84.17
2018-12-16T06:41:40.436Z,83.63
2018-12-16T06:44:08.981Z,82.59
2018-12-16T06:46:37.477Z,84.03
2018-12-16T06:49:05.982Z,84.17
2018-12-16T06:51:34.807Z,84.16
2018-12-16T06:54:03.322Z,84.17
2018-12-16T06:56:31.834Z,84.03
2018-12-16T06:59:00.281Z,84.65
2018-12-16T07:01:28.787Z,84.88
2018-12-16T07:03:57.279Z,84.28
2018-12-16T07:06:26.929Z,84.33
2018-12-16T07:08:55.409Z,84.33
2018-12-16T07:11:23.994Z,84.16
2018-12-16T07:13:52.558Z,84.40
2018-12-16T07:16:21.415Z,84.76
2018-12-16T07:18:49.994Z,84.61
2018-12-16T07:21:18.513Z,84.50
2018-12-16T07:23:46.944Z,84.72
2018-12-16T07:26:15.456Z,84.41
2018-12-16T07:28:43.993Z,84.71
2018-12-16T07:31:12.559Z,84.05
2018-12-16T07:33:41.194Z,84.58
2018-12-16T07:36:12.771Z,85.00
2018-12-16T07:38:41.421Z,84.73
2018-12-16T07:41:10.115Z,83.91
2018-12-16T07:43:38.850Z,84.13
2018-12-16T07:46:07.419Z,84.04
2018-12-16T07:48:36.242Z,84.19
2018-12-16T07:51:04.989Z,84.60
2018-12-16T07:53:33.422Z,85.25
2018-12-16T07:56:01.981Z,85.16
2018-12-16T07:58:30.709Z,84.33
2018-12-16T08:00:59.382Z,84.79
2018-12-16T08:03:28.086Z,85.88
2018-12-16T08:05:57.060Z,84.44
2018-12-16T08:08:25.748Z,84.03
2018-12-16T08:10:54.459Z,85.18
2018-12-16T08:13:22.994Z,85.40
2018-12-16T08:15:51.581Z,84.81
2018-12-16T08:18:20.155Z,84.75
2018-12-16T08:20:48.774Z,84.91
2018-12-16T08:23:17.240Z,85.17
2018-12-16T08:25:45.830Z,85.25
2018-12-16T08:28:14.379Z,85.33
2018-12-16T08:30:43.169Z,85.24
2018-12-16T08:33:12.330Z,85.17
2018-12-16T08:35:40.927Z,85.51
2018-12-16T08:38:09.476Z,85.01
2018-12-16T08:40:38.250Z,84.75
2018-12-16T08:43:06.888Z,84.22
2018-12-16T08:45:35.486Z,84.68
2018-12-16T08:48:04.163Z,84.40
2018-12-16T08:50:32.847Z,84.54
2018-12-16T08:53:01.305Z,84.83
2018-12-16T08:55:29.944Z,84.72
2018-12-16T08:57:58.507Z,84.56
2018-12-16T09:00:27.385Z,84.01
2018-12-16T09:02:55.999Z,83.70
2018-12-16T09:05:24.521Z,83.30
2018-12-16T09:07:53.274Z,83.48
2018-12-16T09:10:21.773Z,83.47
2018-12-16T09:12:50.438Z,84.03
2018-12-16T09:24:23.264Z,82.05
2018-12-16T09:27:13.504Z,82.88
2018-12-16T09:32:51.102Z,83.13
2018-12-16T09:35:19.407Z,82.74
2018-12-16T09:37:47.940Z,82.28
2018-12-16T09:40:16.301Z,82.74
2018-12-16T09:42:44.650Z,81.78
2018-12-16T09:45:13.073Z,82.82
2018-12-16T09:47:41.756Z,83.48
2018-12-16T09:50:10.330Z,80.49
2018-12-16T09:52:38.703Z,79.54
2018-12-16T09:55:07.697Z,80.13
2018-12-16T09:57:36.065Z,80.85
2018-12-16T10:00:05.097Z,81.14
2018-12-16T10:02:33.643Z,81.26
2018-12-16T10:05:02.156Z,81.09
2018-12-16T10:07:30.456Z,80.70
2018-12-16T10:09:58.817Z,80.35
2018-12-16T10:12:27.341Z,80.77
2018-12-16T10:14:55.762Z,80.74
2018-12-16T10:17:24.078Z,80.87
2018-12-16T10:19:52.721Z,80.61
2018-12-16T10:22:21.211Z,80.71
2018-12-16T10:24:51.508Z,80.58
2018-12-16T10:27:20.291Z,80.48
2018-12-16T10:29:48.803Z,81.01
2018-12-16T10:32:17.117Z,81.02
2018-12-16T10:34:45.529Z,81.04
2018-12-16T10:37:13.899Z,80.99
2018-12-16T10:39:43.455Z,81.72
2018-12-16T10:42:11.779Z,80.13
2018-12-16T10:44:40.182Z,81.53
2018-12-16T10:47:08.461Z,82.69
2018-12-16T10:49:36.893Z,83.45
2018-12-16T10:52:05.381Z,84.04
2018-12-16T10:54:33.739Z,83.86
2018-12-16T10:57:02.714Z,84.39
2018-12-16T10:59:31.749Z,84.43
2018-12-16T11:02:00.049Z,84.97
2018-12-16T11:04:28.410Z,85.64
2018-12-16T11:06:56.708Z,85.95
2018-12-16T11:09:25.180Z,86.46
2018-12-16T11:11:53.510Z,85.52
2018-12-16T11:14:21.844Z,86.39
2018-12-16T11:16:50.300Z,87.30
2018-12-16T11:19:18.733Z,88.12
2018-12-16T11:21:47.123Z,88.54
2018-12-16T11:24:15.532Z,91.25
2018-12-16T11:26:43.967Z,91.39
2018-12-16T11:29:12.370Z,92.21
2018-12-16T11:31:40.709Z,92.28
2018-12-16T11:34:09.377Z,92.83
2018-12-16T11:36:37.705Z,92.47
2018-12-16T11:39:07.650Z,92.42
2018-12-16T11:41:36.087Z,93.58
2018-12-16T11:44:04.512Z,94.00
2018-12-16T11:46:32.885Z,94.57
2018-12-16T11:49:01.265Z,94.73
2018-12-16T11:51:29.707Z,95.25
2018-12-16T11:53:58.034Z,94.81
2018-12-16T11:56:26.400Z,95.11
2018-12-16T11:58:54.968Z,95.27
2018-12-16T12:01:23.337Z,94.38
2018-12-16T12:03:51.732Z,94.99
2018-12-16T12:06:20.053Z,95.99
2018-12-16T12:08:48.379Z,96.19
2018-12-16T12:11:16.734Z,96.06
2018-12-16T12:13:45.265Z,96.23
2018-12-16T12:16:13.692Z,96.34
2018-12-16T12:18:42.106Z,96.15
2018-12-16T12:21:10.548Z,96.28
2018-12-16T12:23:38.885Z,96.22
2018-12-16T12:26:07.299Z,96.66
2018-12-16T12:28:35.947Z,96.96
2018-12-16T12:31:04.733Z,96.71
2018-12-16T12:33:33.052Z,97.30
2018-12-16T12:36:01.431Z,95.50
2018-12-16T12:38:29.980Z,95.40
2018-12-16T12:40:58.495Z,94.58
2018-12-16T12:43:26.845Z,94.45
2018-12-16T12:45:55.353Z,94.82
2018-12-16T12:48:23.733Z,95.24
2018-12-16T12:50:52.120Z,95.48
2018-12-16T12:53:20.494Z,96.09
2018-12-16T12:55:48.990Z,95.60
2018-12-16T12:58:17.304Z,95.85
2018-12-16T13:00:45.645Z,96.12
2018-12-16T13:03:13.968Z,96.04
2018-12-16T13:05:42.292Z,95.84
2018-12-16T13:08:10.629Z,96.48
2018-12-16T13:10:38.960Z,96.16
2018-12-16T13:13:07.337Z,95.47
2018-12-16T13:15:36.199Z,94.72
2018-12-16T13:18:04.649Z,95.21
2018-12-16T13:20:33.052Z,95.39
2018-12-16T13:23:01.505Z,95.04
2018-12-16T13:25:41.315Z,95.22
2018-12-16T13:28:10.118Z,95.78
2018-12-16T13:30:38.669Z,95.90
2018-12-16T13:33:07.096Z,95.62
2018-12-16T13:35:35.415Z,95.84
2018-12-16T13:38:03.706Z,95.37
2018-12-16T13:40:32.158Z,95.44
2018-12-16T13:43:00.525Z,95.83
2018-12-16T13:45:28.933Z,95.39
2018-12-16T13:47:57.292Z,95.66
2018-12-16T13:50:25.637Z,95.65
2018-12-16T13:52:54.041Z,95.82
2018-12-16T13:55:23.161Z,95.62
2018-12-16T13:57:51.944Z,95.27
2018-12-16T14:00:20.276Z,93.31
2018-12-16T14:02:49.957Z,93.71
2018-12-16T14:05:18.511Z,93.51
2018-12-16T14:07:46.826Z,93.96
2018-12-16T14:10:15.142Z,94.48
2018-12-16T14:12:43.497Z,94.22
2018-12-16T14:15:11.916Z,93.97
2018-12-16T14:17:40.215Z,94.29
2018-12-16T14:20:10.088Z,94.26
2018-12-16T14:22:38.556Z,94.20
2018-12-16T14:25:07.259Z,93.40
2018-12-16T14:27:35.593Z,93.16
2018-12-16T14:30:05.144Z,92.90
2018-12-16T14:32:33.442Z,93.45
2018-12-16T14:35:02.725Z,94.61
2018-12-16T14:37:31.273Z,94.54
2018-12-16T14:39:59.683Z,94.31
2018-12-16T14:42:28.021Z,93.70
2018-12-16T14:44:56.387Z,94.15
2018-12-16T14:47:24.727Z,94.21
2018-12-16T14:49:53.065Z,94.16
2018-12-16T14:52:21.471Z,94.76
2018-12-16T14:54:49.861Z,94.31
2018-12-16T14:57:18.281Z,94.07
2018-12-16T14:59:46.776Z,93.97
2018-12-16T15:02:15.099Z,94.55
2018-12-16T15:04:43.645Z,94.98
2018-12-16T15:07:12.104Z,94.46
2018-12-16T15:09:40.497Z,95.15
2018-12-16T15:12:08.888Z,94.78
2018-12-16T15:14:37.633Z,94.75
2018-12-16T15:17:05.948Z,94.35
2018-12-16T15:19:34.420Z,94.07
2018-12-16T15:22:02.788Z,94.24
2018-12-16T15:24:31.132Z,94.56
2018-12-16T15:26:59.603Z,94.06
2018-12-16T15:29:27.887Z,94.79
2018-12-16T15:31:56.308Z,95.20
2018-12-16T15:34:24.706Z,94.83
2018-12-16T15:36:53.158Z,95.33
2018-12-16T15:39:21.607Z,95.48
2018-12-16T15:41:50.127Z,95.54
2018-12-16T15:44:18.416Z,95.33
2018-12-16T15:46:46.871Z,95.43
2018-12-16T15:49:15.159Z,94.56
2018-12-16T15:51:43.464Z,94.25
2018-12-16T15:54:11.821Z,94.90
2018-12-16T15:56:40.187Z,94.86
2018-12-16T15:59:08.524Z,94.66
2018-12-16T16:01:36.917Z,94.27
2018-12-16T16:04:05.233Z,94.45
2018-12-16T16:06:34.389Z,94.29
2018-12-16T16:09:03.013Z,94.40
2018-12-16T16:11:31.489Z,95.01
2018-12-16T16:14:00.169Z,95.48
2018-12-16T16:16:28.485Z,95.61
2018-12-16T16:18:56.917Z,95.25
2018-12-16T16:21:25.238Z,95.06
2018-12-16T16:23:53.567Z,94.51
2018-12-16T16:26:21.941Z,94.84
2018-12-16T16:28:50.280Z,94.65
2018-12-16T16:31:18.616Z,94.52
2018-12-16T16:33:46.971Z,94.66
2018-12-16T16:36:15.303Z,95.00
2018-12-16T16:38:43.713Z,95.19
2018-12-16T16:41:12.026Z,95.80
2018-12-16T16:43:40.363Z,95.31
2018-12-16T16:46:08.708Z,95.06
2018-12-16T16:48:37.146Z,95.32
2018-12-16T16:51:05.461Z,94.90
2018-12-16T16:53:33.736Z,94.99
2018-12-16T16:56:02.050Z,95.33
2018-12-16T16:58:30.530Z,94.85
2018-12-16T17:00:58.896Z,94.50
2018-12-16T17:03:27.234Z,94.07
2018-12-16T17:05:55.678Z,95.16
2018-12-16T17:08:24.025Z,95.33
2018-12-16T17:10:52.529Z,95.00
2018-12-16T17:13:20.835Z,94.70
2018-12-16T17:15:49.197Z,94.84
2018-12-16T17:18:17.542Z,94.52
2018-12-16T17:20:46.119Z,94.48
2018-12-16T17:23:14.531Z,94.71
2018-12-16T17:25:48.196Z,93.78
2018-12-16T17:28:13.282Z,94.15
2018-12-16T17:30:41.600Z,94.33
2018-12-16T17:33:09.901Z,94.10
2018-12-16T17:35:38.241Z,94.36
2018-12-16T17:38:07.693Z,94.18
2018-12-16T17:40:36.219Z,94.69
2018-12-16T17:43:04.720Z,94.94
2018-12-16T17:45:33.350Z,94.96
2018-12-16T17:48:01.773Z,94.32
2018-12-16T17:50:30.237Z,94.38
2018-12-16T17:52:59.339Z,95.01
2018-12-16T17:55:27.753Z,94.52
2018-12-16T17:57:56.152Z,95.13
2018-12-16T18:00:24.694Z,95.04
2018-12-16T18:02:53.121Z,94.72
2018-12-16T18:05:21.721Z,95.16
2018-12-16T18:07:50.048Z,95.78
2018-12-16T18:10:18.417Z,96.59
2018-12-16T18:12:46.767Z,96.11
2018-12-16T18:15:15.295Z,96.36
2018-12-16T18:17:43.753Z,95.78
2018-12-16T18:20:12.338Z,95.25
2018-12-16T18:22:40.749Z,95.15
2018-12-16T18:25:09.154Z,95.02
2018-12-16T18:27:37.527Z,95.25
2018-12-16T18:30:07.504Z,94.72
2018-12-16T18:32:35.852Z,94.47
2018-12-16T18:35:04.715Z,95.62
2018-12-16T18:37:33.132Z,95.26
2018-12-16T18:40:01.633Z,95.36
2018-12-16T18:42:30.039Z,95.66
2018-12-16T18:44:58.483Z,95.15
2018-12-16T18:47:26.916Z,95.45
2018-12-16T18:49:55.298Z,94.96
2018-12-16T18:52:24.258Z,95.13
2018-12-16T18:54:52.572Z,95.32
2018-12-16T18:57:20.857Z,95.76
2018-12-16T18:59:49.214Z,96.35
2018-12-16T19:02:17.609Z,96.84
2018-12-16T19:04:45.969Z,96.88
2018-12-16T19:07:14.288Z,96.62
2018-12-16T19:09:42.732Z,96.36
2018-12-16T19:12:11.102Z,96.15
2018-12-16T19:14:39.932Z,96.03
2018-12-16T19:17:08.385Z,96.21
2018-12-16T19:19:36.805Z,96.78
2018-12-16T19:22:05.348Z,97.19
2018-12-16T19:24:33.715Z,96.85
2018-12-16T19:27:02.367Z,97.36
2018-12-16T19:29:30.716Z,97.28
2018-12-16T19:32:00.156Z,97.57
2018-12-16T19:34:28.916Z,97.46
2018-12-16T19:36:57.434Z,97.70
2018-12-16T19:39:25.898Z,97.90
2018-12-16T19:41:54.333Z,97.81
2018-12-16T19:44:24.290Z,98.24
2018-12-16T19:46:53.359Z,97.94
2018-12-16T19:49:22.360Z,98.37
2018-12-16T19:52:01.794Z,98.04
2018-12-16T19:54:31.777Z,97.90
2018-12-16T19:57:05.091Z,98.08
2018-12-16T19:59:30.785Z,98.35
2018-12-16T20:02:00.977Z,98.79
2018-12-16T20:04:34.644Z,98.56
2018-12-16T20:07:03.133Z,98.54
2018-12-16T20:09:31.523Z,98.33
2018-12-16T20:11:59.856Z,98.47
2018-12-16T20:14:28.186Z,98.56
2018-12-16T20:16:56.589Z,98.69
2018-12-16T20:19:25.010Z,98.78
2018-12-16T20:21:54.651Z,98.97
2018-12-16T20:24:24.207Z,99.10
2018-12-16T20:26:53.845Z,98.94
2018-12-16T20:29:23.884Z,99.33
2018-12-16T20:31:52.210Z,99.16
2018-12-16T20:34:21.300Z,99.74
2018-12-16T20:36:50.460Z,99.48
2018-12-16T20:39:18.819Z,99.67
2018-12-16T20:41:47.141Z,99.99
2018-12-16T20:44:17.512Z,99.87
2018-12-16T20:46:46.029Z,100.00
2018-12-16T20:49:14.375Z,100.00
2018-12-16T20:51:42.749Z,100.00
2018-12-16T20:54:12.643Z,100.00
2018-12-16T20:56:41.028Z,100.00
2018-12-16T20:59:09.388Z,99.88
2018-12-16T21:01:37.878Z,100.00
2018-12-16T21:04:08.514Z,100.00
2018-12-16T21:06:36.877Z,100.00
2018-12-16T21:09:07.633Z,100.00
2018-12-16T21:11:42.513Z,100.00
2018-12-16T21:14:16.281Z,100.00
2018-12-16T21:16:50.103Z,99.67
2018-12-16T21:19:18.856Z,99.71
2018-12-16T21:21:47.235Z,99.66
2018-12-16T21:24:17.111Z,100.00
2018-12-16T21:26:45.475Z,99.69
2018-12-16T21:29:13.886Z,99.93
2018-12-16T21:31:43.525Z,100.00
2018-12-16T21:34:12.313Z,99.66
2018-12-16T21:36:41.143Z,100.00
2018-12-16T21:39:12.935Z,100.00
2018-12-16T21:41:44.608Z,100.00
2018-12-16T21:44:13.032Z,100.00
2018-12-16T21:46:41.543Z,100.00
2018-12-16T21:49:10.997Z,100.00
2018-12-16T21:51:40.613Z,100.00
2018-12-16T21:54:08.970Z,100.00
2018-12-16T21:56:37.303Z,100.00
2018-12-16T21:59:05.659Z,100.00
2018-12-16T22:01:34.053Z,100.00
2018-12-16T22:04:02.647Z,100.00
2018-12-16T22:06:31.030Z,100.00
2018-12-16T22:08:59.340Z,100.00
2018-12-16T22:11:27.759Z,100.00
2018-12-16T22:13:56.936Z,100.00
2018-12-16T22:16:25.265Z,100.00
2018-12-16T22:18:53.708Z,100.00
2018-12-16T22:21:22.034Z,100.00
2018-12-16T22:23:50.462Z,100.00
2018-12-16T22:26:19.045Z,100.00
2018-12-16T22:28:47.450Z,100.00
2018-12-16T22:31:15.756Z,100.00
2018-12-16T22:33:44.120Z,99.88
2018-12-16T22:36:12.513Z,100.00
2018-12-16T22:38:40.848Z,100.00
2018-12-16T22:41:09.186Z,100.00
2018-12-16T22:43:37.888Z,100.00
2018-12-16T22:46:06.274Z,100.00
2018-12-16T22:48:34.816Z,100.00
2018-12-16T22:51:03.228Z,100.00
2018-12-16T22:53:31.584Z,100.00
2018-12-16T22:55:59.928Z,100.00
2018-12-16T22:58:28.275Z,100.00
2018-12-16T23:01:02.232Z,100.00
2018-12-16T23:03:30.609Z,100.00
2018-12-16T23:06:01.105Z,100.00
2018-12-16T23:08:29.572Z,100.00
2018-12-16T23:10:58.157Z,100.00
2018-12-16T23:13:26.540Z,100.00
2018-12-16T23:15:54.943Z,100.00
2018-12-16T23:18:23.266Z,100.00
2018-12-16T23:20:51.669Z,100.00
2018-12-16T23:23:20.091Z,100.00
2018-12-16T23:25:48.449Z,100.00
2018-12-16T23:28:17.080Z,100.00
2018-12-16T23:30:45.393Z,100.00
2018-12-16T23:33:13.781Z,100.00
2018-12-16T23:35:42.165Z,100.00
2018-12-16T23:38:10.549Z,100.00
2018-12-16T23:40:38.979Z,100.00
2018-12-16T23:43:07.407Z,100.00
2018-12-16T23:45:35.753Z,100.00
2018-12-16T23:48:04.156Z,100.00
2018-12-16T23:50:32.502Z,100.00
2018-12-16T23:53:00.821Z,100.00
2018-12-16T23:55:29.116Z,100.00
2018-12-16T23:58:01.018Z,100.00
